createdAt,value
2024-02-21T00:00:18.613Z,3.97
2024-02-21T00:02:45.366Z,5.22
2024-02-21T00:05:12.271Z,5.51
2024-02-21T00:07:39.080Z,5.47
2024-02-21T00:10:06.488Z,5.35
2024-02-21T00:12:33.215Z,5.11
2024-02-21T00:14:59.946Z,5.49
2024-02-21T00:17:27.563Z,5.64
2024-02-21T00:19:54.392Z,5.69
2024-02-21T00:22:21.230Z,2.56
2024-02-21T00:24:47.938Z,4.85
2024-02-21T00:27:14.686Z,4.27
2024-02-21T00:29:41.419Z,5.11
2024-02-21T00:32:08.133Z,4.63
2024-02-21T00:34:35.073Z,4.61
2024-02-21T00:37:01.780Z,5.44
2024-02-21T00:39:28.468Z,5.50
2024-02-21T00:41:55.139Z,5.62
2024-02-21T00:44:21.922Z,5.76
2024-02-21T00:46:48.672Z,5.22
2024-02-21T00:49:15.469Z,5.75
2024-02-21T00:51:42.404Z,5.65
2024-02-21T00:54:09.095Z,5.01
2024-02-21T00:56:36.114Z,5.50
2024-02-21T00:59:02.885Z,5.27
2024-02-21T01:01:29.790Z,5.30
2024-02-21T01:03:56.661Z,5.29
2024-02-21T01:06:23.616Z,5.38
2024-02-21T01:08:50.912Z,5.15
2024-02-21T01:11:17.974Z,4.82
2024-02-21T01:13:45.405Z,5.02
2024-02-21T01:16:12.212Z,4.60
2024-02-21T01:18:40.830Z,4.85
2024-02-21T01:21:09.076Z,4.98
2024-02-21T01:23:37.176Z,5.05
2024-02-21T01:26:09.448Z,4.90
2024-02-21T01:28:37.007Z,4.83
2024-02-21T01:31:04.378Z,5.14
2024-02-21T01:33:35.895Z,5.19
2024-02-21T01:36:03.965Z,5.19
2024-02-21T01:38:31.062Z,5.22
2024-02-21T01:40:57.788Z,5.14
2024-02-21T01:43:24.733Z,4.96
2024-02-21T01:45:55.988Z,4.95
2024-02-21T01:48:26.396Z,4.89
2024-02-21T01:50:55.688Z,4.41
2024-02-21T01:53:26.383Z,5.00
2024-02-21T01:55:54.396Z,4.99
2024-02-21T01:58:21.303Z,4.88
2024-02-21T02:00:49.513Z,4.97
2024-02-21T02:03:19.223Z,4.69
2024-02-21T02:05:50.793Z,5.01
2024-02-21T02:08:19.511Z,4.78
2024-02-21T02:10:49.582Z,5.12
2024-02-21T02:13:16.671Z,4.78
2024-02-21T02:15:46.363Z,5.10
2024-02-21T02:18:14.081Z,5.33
2024-02-21T02:20:41.785Z,5.37
2024-02-21T02:23:09.801Z,5.12
2024-02-21T02:25:40.556Z,5.51
2024-02-21T02:28:08.321Z,5.60
2024-02-21T02:30:37.196Z,5.02
2024-02-21T02:33:07.276Z,5.67
2024-02-21T02:35:36.630Z,5.25
2024-02-21T02:38:07.155Z,5.64
2024-02-21T02:40:37.590Z,5.61
2024-02-21T02:43:04.683Z,5.62
2024-02-21T02:45:32.720Z,5.60
2024-02-21T02:47:59.602Z,5.42
2024-02-21T02:50:27.543Z,5.63
2024-02-21T02:52:55.598Z,5.57
2024-02-21T02:55:22.509Z,5.39
2024-02-21T02:57:49.326Z,4.98
2024-02-21T03:00:16.462Z,5.30
2024-02-21T03:02:44.694Z,4.65
2024-02-21T03:05:17.070Z,5.04
2024-02-21T03:07:45.170Z,4.13
2024-02-21T03:10:12.637Z,4.59
2024-02-21T03:12:39.909Z,4.89
2024-02-21T03:15:07.433Z,4.89
2024-02-21T03:17:37.301Z,4.80
2024-02-21T03:20:10.527Z,4.62
2024-02-21T03:22:38.195Z,4.68
2024-02-21T03:25:05.501Z,4.60
2024-02-21T03:27:32.270Z,4.53
2024-02-21T03:29:58.993Z,4.30
2024-02-21T03:32:25.908Z,4.24
2024-02-21T03:34:52.735Z,4.01
2024-02-21T03:37:19.874Z,4.22
2024-02-21T03:39:46.694Z,4.02
2024-02-21T03:42:13.428Z,3.95
2024-02-21T03:44:40.143Z,4.08
2024-02-21T03:47:07.021Z,3.95
2024-02-21T03:49:33.829Z,3.90
2024-02-21T03:52:00.567Z,3.80
2024-02-21T03:54:27.261Z,3.65
2024-02-21T03:56:53.959Z,3.79
2024-02-21T03:59:20.690Z,3.76
2024-02-21T04:01:47.413Z,3.69
2024-02-21T04:04:14.278Z,3.69
2024-02-21T04:06:48.641Z,-1.14
2024-02-21T04:09:15.460Z,2.98
2024-02-21T04:11:42.324Z,3.64
2024-02-21T04:14:09.170Z,3.56
2024-02-21T04:16:36.449Z,3.65
2024-02-21T04:19:03.594Z,3.58
2024-02-21T04:21:30.432Z,3.57
2024-02-21T04:23:57.267Z,3.40
2024-02-21T04:26:24.177Z,3.58
2024-02-21T04:28:50.892Z,3.58
2024-02-21T04:31:17.762Z,3.58
2024-02-21T04:33:44.760Z,3.57
2024-02-21T04:36:11.609Z,3.04
2024-02-21T04:38:40.273Z,3.50
2024-02-21T04:41:07.323Z,2.92
2024-02-21T04:43:34.152Z,3.51
2024-02-21T04:46:01.547Z,3.38
2024-02-21T04:48:28.282Z,2.83
2024-02-21T04:50:55.064Z,3.37
2024-02-21T04:53:21.845Z,3.21
2024-02-21T04:55:48.822Z,2.45
2024-02-21T04:58:15.713Z,3.05
2024-02-21T05:00:42.905Z,3.10
2024-02-21T05:03:09.787Z,3.04
2024-02-21T05:05:36.940Z,3.00
2024-02-21T05:08:04.440Z,3.00
2024-02-21T05:10:31.249Z,2.95
2024-02-21T05:12:58.790Z,3.00
2024-02-21T05:15:25.500Z,2.96
2024-02-21T05:17:52.352Z,2.88
2024-02-21T05:20:19.199Z,2.91
2024-02-21T05:22:45.987Z,2.79
2024-02-21T05:25:12.767Z,2.87
2024-02-21T05:27:39.808Z,2.80
2024-02-21T05:30:07.921Z,2.85
2024-02-21T05:32:34.797Z,2.94
2024-02-21T05:35:01.848Z,2.62
2024-02-21T05:37:28.750Z,2.69
2024-02-21T05:39:55.555Z,3.06
2024-02-21T05:42:22.231Z,3.11
2024-02-21T05:44:48.948Z,3.14
2024-02-21T05:47:16.784Z,2.88
2024-02-21T05:49:43.898Z,3.43
2024-02-21T05:52:11.024Z,3.55
2024-02-21T05:54:40.696Z,3.68
2024-02-21T05:57:08.828Z,3.35
2024-02-21T05:59:37.600Z,3.80
2024-02-21T06:02:05.611Z,3.03
2024-02-21T06:04:32.636Z,3.73
2024-02-21T06:06:59.533Z,3.72
2024-02-21T06:09:26.331Z,3.79
2024-02-21T06:11:53.225Z,3.50
2024-02-21T06:14:21.000Z,3.46
2024-02-21T06:16:48.209Z,3.99
2024-02-21T06:19:15.198Z,4.14
2024-02-21T06:21:42.058Z,3.98
2024-02-21T06:24:08.936Z,3.96
2024-02-21T06:26:35.719Z,4.23
2024-02-21T06:29:03.312Z,3.93
2024-02-21T06:31:30.804Z,4.26
2024-02-21T06:33:57.871Z,3.77
2024-02-21T06:36:24.851Z,4.44
2024-02-21T06:38:51.626Z,4.29
2024-02-21T06:41:20.068Z,4.33
2024-02-21T06:43:47.746Z,4.11
2024-02-21T06:46:29.969Z,4.19
2024-02-21T06:48:58.524Z,4.44
2024-02-21T06:51:26.349Z,4.44
2024-02-21T06:53:53.988Z,4.53
2024-02-21T06:56:20.974Z,4.13
2024-02-21T06:58:47.827Z,4.44
2024-02-21T07:01:14.734Z,4.20
2024-02-21T07:03:41.500Z,4.68
2024-02-21T07:06:08.384Z,4.68
2024-02-21T07:08:35.344Z,4.53
2024-02-21T07:11:02.116Z,4.04
2024-02-21T07:13:28.909Z,4.98
2024-02-21T07:15:55.661Z,5.02
2024-02-21T07:18:22.636Z,5.15
2024-02-21T07:20:49.370Z,5.30
2024-02-21T07:23:16.122Z,4.87
2024-02-21T07:25:42.914Z,5.06
2024-02-21T07:28:09.731Z,5.43
2024-02-21T07:30:36.860Z,5.61
2024-02-21T07:33:04.354Z,5.74
2024-02-21T07:35:31.184Z,5.56
2024-02-21T07:37:57.995Z,5.65
2024-02-21T07:40:24.861Z,5.47
2024-02-21T07:42:52.261Z,4.90
2024-02-21T07:45:25.072Z,5.15
2024-02-21T07:47:52.345Z,5.46
2024-02-21T07:50:19.309Z,5.71
2024-02-21T07:52:46.249Z,6.25
2024-02-21T07:55:13.125Z,6.45
2024-02-21T07:57:39.907Z,6.17
2024-02-21T08:00:07.392Z,6.76
2024-02-21T08:02:34.277Z,7.30
2024-02-21T08:05:01.029Z,7.59
2024-02-21T08:07:30.445Z,7.77
2024-02-21T08:09:57.468Z,8.18
2024-02-21T08:12:24.143Z,8.47
2024-02-21T08:14:50.801Z,8.59
2024-02-21T08:17:17.540Z,8.22
2024-02-21T08:19:44.309Z,6.66
2024-02-21T08:22:11.054Z,9.36
2024-02-21T08:24:37.769Z,9.49
2024-02-21T08:27:05.219Z,9.89
2024-02-21T08:29:31.854Z,10.10
2024-02-21T08:31:58.618Z,9.46
2024-02-21T08:34:25.528Z,10.36
2024-02-21T08:36:52.313Z,10.59
2024-02-21T08:39:19.047Z,10.80
2024-02-21T08:41:52.680Z,10.21
2024-02-21T08:44:28.282Z,11.01
2024-02-21T08:46:55.729Z,11.16
2024-02-21T08:49:22.798Z,11.55
2024-02-21T08:51:49.955Z,11.68
2024-02-21T08:54:16.879Z,12.01
2024-02-21T08:56:43.646Z,12.29
2024-02-21T08:59:10.642Z,12.39
2024-02-21T09:01:38.038Z,12.20
2024-02-21T09:04:05.148Z,11.70
2024-02-21T09:06:34.342Z,12.30
2024-02-21T09:09:01.183Z,12.71
2024-02-21T09:11:29.221Z,12.82
2024-02-21T09:13:56.416Z,12.83
2024-02-21T09:16:24.678Z,13.11
2024-02-21T09:18:52.021Z,13.49
2024-02-21T09:21:19.068Z,13.78
2024-02-21T09:23:46.697Z,13.99
2024-02-21T09:26:17.452Z,14.15
2024-02-21T09:28:47.702Z,14.16
2024-02-21T09:31:14.583Z,14.19
2024-02-21T09:33:41.411Z,14.26
2024-02-21T09:36:08.264Z,14.26
2024-02-21T09:38:34.925Z,13.39
2024-02-21T09:41:22.793Z,14.47
2024-02-21T09:43:55.653Z,14.49
2024-02-21T09:46:28.592Z,12.61
2024-02-21T09:49:29.826Z,15.26
2024-02-21T09:51:58.838Z,15.22
2024-02-21T09:54:25.975Z,15.04
2024-02-21T09:56:53.257Z,14.03
2024-02-21T09:59:20.235Z,14.12
2024-02-21T10:01:49.905Z,13.42
2024-02-21T10:04:17.020Z,12.99
2024-02-21T10:06:44.731Z,12.14
2024-02-21T10:09:22.361Z,12.83
2024-02-21T10:11:49.141Z,12.95
2024-02-21T10:14:16.856Z,13.26
2024-02-21T10:16:43.831Z,13.57
2024-02-21T10:19:22.928Z,13.43
2024-02-21T10:22:09.376Z,13.91
2024-02-21T10:24:39.158Z,13.79
2024-02-21T10:27:09.574Z,13.50
2024-02-21T10:29:37.054Z,13.73
2024-02-21T10:32:08.554Z,12.97
2024-02-21T10:34:36.390Z,13.94
2024-02-21T10:37:10.165Z,14.24
2024-02-21T10:39:41.744Z,14.19
2024-02-21T10:42:11.578Z,13.96
2024-02-21T10:44:40.826Z,13.63
2024-02-21T10:47:12.723Z,13.84
2024-02-21T10:49:41.868Z,14.10
2024-02-21T10:52:18.619Z,14.36
2024-02-21T10:55:04.324Z,14.43
2024-02-21T10:57:33.157Z,14.88
2024-02-21T11:00:00.769Z,15.05
2024-02-21T11:02:32.137Z,14.52
2024-02-21T11:05:00.458Z,13.80
2024-02-21T11:07:27.919Z,13.07
2024-02-21T11:09:58.338Z,13.74
2024-02-21T11:12:25.452Z,13.75
2024-02-21T11:14:52.382Z,13.39
2024-02-21T11:17:21.123Z,13.54
2024-02-21T11:19:49.057Z,13.53
2024-02-21T11:22:20.786Z,13.50
2024-02-21T11:24:47.852Z,13.69
2024-02-21T11:27:21.789Z,13.32
2024-02-21T11:29:50.187Z,13.76
2024-02-21T11:32:22.580Z,14.08
2024-02-21T11:35:07.435Z,14.76
2024-02-21T11:37:40.524Z,15.06
2024-02-21T11:40:11.139Z,14.80
2024-02-21T11:42:38.760Z,14.81
2024-02-21T11:45:05.986Z,14.52
2024-02-21T11:47:32.834Z,13.85
2024-02-21T11:49:59.687Z,14.20
2024-02-21T11:52:29.044Z,14.00
2024-02-21T11:54:59.095Z,13.89
2024-02-21T11:57:26.019Z,14.03
2024-02-21T11:59:58.789Z,13.97
2024-02-21T12:02:28.037Z,13.21
2024-02-21T12:04:56.401Z,14.07
2024-02-21T12:07:25.210Z,13.99
2024-02-21T12:09:52.667Z,13.99
2024-02-21T12:12:21.771Z,13.67
2024-02-21T12:14:56.667Z,13.88
2024-02-21T12:17:24.592Z,13.98
2024-02-21T12:19:52.180Z,13.83
2024-02-21T12:22:22.437Z,13.91
2024-02-21T12:24:49.846Z,14.02
2024-02-21T12:27:16.801Z,13.79
2024-02-21T12:29:43.727Z,14.15
2024-02-21T12:32:10.693Z,14.11
2024-02-21T12:34:44.507Z,13.91
2024-02-21T12:37:21.536Z,13.69
2024-02-21T12:39:48.795Z,13.83
2024-02-21T12:42:15.585Z,14.02
2024-02-21T12:44:43.400Z,14.21
2024-02-21T12:47:10.441Z,14.16
2024-02-21T12:49:37.682Z,13.96
2024-02-21T12:52:05.305Z,14.15
2024-02-21T12:54:32.745Z,14.20
2024-02-21T12:57:03.976Z,14.05
2024-02-21T12:59:31.392Z,13.21
2024-02-21T13:01:58.283Z,13.90
2024-02-21T13:04:29.505Z,13.96
2024-02-21T13:06:59.524Z,14.00
2024-02-21T13:09:26.970Z,13.67
2024-02-21T13:11:54.084Z,13.21
2024-02-21T13:14:21.193Z,13.92
2024-02-21T13:16:48.019Z,13.91
2024-02-21T13:19:18.811Z,13.89
2024-02-21T13:21:46.072Z,14.07
2024-02-21T13:24:12.854Z,14.21
2024-02-21T13:26:39.595Z,14.17
2024-02-21T13:29:06.380Z,13.19
2024-02-21T13:31:33.186Z,13.54
2024-02-21T13:34:00.010Z,13.95
2024-02-21T13:36:27.295Z,14.09
2024-02-21T13:38:54.790Z,13.88
2024-02-21T13:41:23.312Z,13.78
2024-02-21T13:43:50.207Z,12.82
2024-02-21T13:46:16.988Z,13.03
2024-02-21T13:48:43.846Z,13.44
2024-02-21T13:51:10.686Z,13.31
2024-02-21T13:53:37.576Z,12.90
2024-02-21T13:56:04.776Z,13.07
2024-02-21T13:58:31.597Z,13.17
2024-02-21T14:00:58.522Z,13.20
2024-02-21T14:03:27.029Z,13.19
2024-02-21T14:05:53.927Z,13.24
2024-02-21T14:08:20.782Z,13.24
2024-02-21T14:10:48.810Z,13.07
2024-02-21T14:13:15.647Z,13.11
2024-02-21T14:15:47.098Z,10.55
2024-02-21T14:18:14.379Z,11.73
2024-02-21T14:20:41.170Z,12.10
2024-02-21T14:23:08.198Z,11.00
2024-02-21T14:25:35.136Z,11.82
2024-02-21T14:28:02.248Z,12.07
2024-02-21T14:30:30.728Z,11.81
2024-02-21T14:32:57.933Z,11.96
2024-02-21T14:35:25.082Z,12.06
2024-02-21T14:37:52.093Z,11.86
2024-02-21T14:40:20.575Z,11.45
2024-02-21T14:42:47.480Z,10.88
2024-02-21T14:45:15.108Z,10.69
2024-02-21T14:47:42.103Z,10.26
2024-02-21T14:50:09.296Z,10.07
2024-02-21T14:52:37.171Z,9.64
2024-02-21T14:55:04.501Z,9.44
2024-02-21T14:57:31.412Z,9.12
2024-02-21T15:00:00.662Z,6.22
2024-02-21T15:02:29.496Z,9.19
2024-02-21T15:04:57.181Z,9.40
2024-02-21T15:07:26.451Z,9.58
2024-02-21T15:09:53.805Z,9.74
2024-02-21T15:12:20.767Z,9.19
2024-02-21T15:14:47.541Z,9.77
2024-02-21T15:17:14.919Z,9.76
2024-02-21T15:19:45.364Z,9.97
2024-02-21T15:22:12.975Z,9.53
2024-02-21T15:24:41.097Z,10.29
2024-02-21T15:27:09.414Z,9.92
2024-02-21T15:29:39.692Z,9.92
2024-02-21T15:32:06.994Z,10.35
2024-02-21T15:34:34.159Z,10.37
2024-02-21T15:37:01.457Z,10.34
2024-02-21T15:39:28.575Z,10.03
2024-02-21T15:41:59.883Z,9.97
2024-02-21T15:44:26.680Z,10.49
2024-02-21T15:46:54.607Z,10.26
2024-02-21T15:49:22.281Z,10.54
2024-02-21T15:51:49.432Z,10.50
2024-02-21T15:54:22.149Z,10.53
2024-02-21T15:56:51.402Z,10.43
2024-02-21T15:59:18.304Z,10.36
2024-02-21T16:01:45.231Z,9.81
2024-02-21T16:04:12.086Z,10.25
2024-02-21T16:06:38.885Z,10.32
2024-02-21T16:09:10.441Z,9.91
2024-02-21T16:11:37.479Z,10.26
2024-02-21T16:14:04.590Z,10.07
2024-02-21T16:16:32.143Z,10.13
2024-02-21T16:18:59.314Z,10.15
2024-02-21T16:21:27.789Z,10.03
2024-02-21T16:23:54.574Z,10.00
2024-02-21T16:26:21.358Z,9.94
2024-02-21T16:28:48.290Z,9.84
2024-02-21T16:31:15.190Z,9.19
2024-02-21T16:33:42.116Z,9.21
2024-02-21T16:36:09.193Z,9.77
2024-02-21T16:38:41.479Z,9.24
2024-02-21T16:41:08.580Z,9.54
2024-02-21T16:43:35.707Z,8.99
2024-02-21T16:46:02.640Z,9.51
2024-02-21T16:48:30.778Z,9.42
2024-02-21T16:51:01.035Z,9.20
2024-02-21T16:53:29.629Z,9.18
2024-02-21T16:55:56.741Z,9.03
2024-02-21T16:58:23.750Z,8.80
2024-02-21T17:00:50.598Z,8.38
2024-02-21T17:03:21.613Z,8.55
2024-02-21T17:05:54.814Z,7.94
2024-02-21T17:08:25.134Z,8.33
2024-02-21T17:10:52.754Z,8.30
2024-02-21T17:13:19.612Z,8.28
2024-02-21T17:15:47.069Z,7.71
2024-02-21T17:18:13.908Z,8.32
2024-02-21T17:20:40.818Z,8.50
2024-02-21T17:23:07.611Z,8.46
2024-02-21T17:25:34.422Z,8.01
2024-02-21T17:28:01.156Z,8.55
2024-02-21T17:30:27.930Z,8.32
2024-02-21T17:32:54.773Z,8.55
2024-02-21T17:35:22.040Z,7.99
2024-02-21T17:37:49.004Z,8.56
2024-02-21T17:40:15.922Z,8.27
2024-02-21T17:42:42.743Z,8.64
2024-02-21T17:45:10.006Z,8.56
2024-02-21T17:47:36.737Z,8.23
2024-02-21T17:50:03.784Z,8.67
2024-02-21T17:52:30.785Z,8.76
2024-02-21T17:54:58.883Z,8.54
2024-02-21T17:57:27.270Z,8.70
2024-02-21T17:59:54.785Z,8.58
2024-02-21T18:02:24.955Z,8.76
2024-02-21T18:04:52.501Z,8.67
2024-02-21T18:07:21.754Z,8.81
2024-02-21T18:09:51.439Z,8.49
2024-02-21T18:12:18.749Z,8.88
2024-02-21T18:14:45.496Z,9.01
2024-02-21T18:17:12.968Z,9.08
2024-02-21T18:19:39.989Z,9.17
2024-02-21T18:22:08.152Z,8.88
2024-02-21T18:24:35.683Z,8.91
2024-02-21T18:27:02.622Z,9.26
2024-02-21T18:29:38.058Z,8.83
2024-02-21T18:32:10.492Z,8.81
2024-02-21T18:34:38.287Z,8.96
2024-02-21T18:37:05.745Z,8.89
2024-02-21T18:39:33.077Z,8.74
2024-02-21T18:42:00.145Z,8.62
2024-02-21T18:44:27.100Z,8.87
2024-02-21T18:46:54.129Z,8.65
2024-02-21T18:49:21.164Z,8.56
2024-02-21T18:51:48.188Z,8.71
2024-02-21T18:54:15.095Z,8.39
2024-02-21T18:56:49.120Z,8.57
2024-02-21T18:59:16.333Z,8.57
2024-02-21T19:01:43.298Z,8.19
2024-02-21T19:04:10.244Z,8.04
2024-02-21T19:06:37.346Z,8.33
2024-02-21T19:09:05.957Z,8.37
2024-02-21T19:11:33.349Z,8.11
2024-02-21T19:14:00.471Z,8.16
2024-02-21T19:16:30.733Z,8.19
2024-02-21T19:18:57.614Z,7.51
2024-02-21T19:21:24.568Z,8.05
2024-02-21T19:23:51.540Z,8.06
2024-02-21T19:26:18.424Z,8.15
2024-02-21T19:28:46.679Z,8.12
2024-02-21T19:31:16.999Z,8.06
2024-02-21T19:33:43.838Z,8.02
2024-02-21T19:36:10.932Z,7.89
2024-02-21T19:38:38.211Z,7.75
2024-02-21T19:41:09.036Z,7.93
2024-02-21T19:43:36.191Z,7.47
2024-02-21T19:46:03.484Z,7.66
2024-02-21T19:48:30.939Z,7.79
2024-02-21T19:50:58.446Z,7.90
2024-02-21T19:53:25.555Z,7.34
2024-02-21T19:55:52.857Z,7.65
2024-02-21T19:58:19.960Z,7.58
2024-02-21T20:00:47.060Z,7.47
2024-02-21T20:03:14.025Z,7.58
2024-02-21T20:05:44.532Z,7.62
2024-02-21T20:08:14.791Z,7.64
2024-02-21T20:10:42.244Z,7.70
2024-02-21T20:13:13.944Z,7.73
2024-02-21T20:15:40.969Z,7.70
2024-02-21T20:18:07.911Z,7.59
2024-02-21T20:20:36.185Z,7.60
2024-02-21T20:23:03.265Z,7.27
2024-02-21T20:25:30.607Z,7.45
2024-02-21T20:27:57.476Z,7.43
2024-02-21T20:30:24.924Z,7.33
2024-02-21T20:32:54.154Z,6.90
2024-02-21T20:35:22.098Z,7.47
2024-02-21T20:37:49.367Z,7.24
2024-02-21T20:40:17.047Z,7.35
2024-02-21T20:42:43.922Z,7.08
2024-02-21T20:45:11.584Z,7.27
2024-02-21T20:47:38.913Z,7.37
2024-02-21T20:50:06.567Z,6.95
2024-02-21T20:52:33.653Z,7.42
2024-02-21T20:55:00.716Z,7.50
2024-02-21T20:57:28.209Z,7.14
2024-02-21T20:59:58.102Z,7.53
2024-02-21T21:02:25.100Z,7.57
2024-02-21T21:04:53.057Z,7.55
2024-02-21T21:07:22.294Z,7.58
2024-02-21T21:09:52.238Z,7.50
2024-02-21T21:12:19.275Z,7.47
2024-02-21T21:14:46.334Z,7.60
2024-02-21T21:17:13.210Z,7.24
2024-02-21T21:19:40.228Z,7.54
2024-02-21T21:22:07.414Z,7.60
2024-02-21T21:24:34.649Z,6.76
2024-02-21T21:27:01.492Z,7.56
2024-02-21T21:29:28.160Z,7.14
2024-02-21T21:31:55.071Z,7.02
2024-02-21T21:34:21.949Z,7.37
2024-02-21T21:36:48.877Z,7.40
2024-02-21T21:39:17.686Z,7.29
2024-02-21T21:41:44.639Z,7.24
2024-02-21T21:44:11.706Z,7.11
2024-02-21T21:46:44.227Z,6.75
2024-02-21T21:49:11.106Z,6.99
2024-02-21T21:51:37.903Z,6.63
2024-02-21T21:54:05.446Z,6.12
2024-02-21T21:56:32.528Z,5.96
2024-02-21T21:58:59.400Z,6.58
2024-02-21T22:01:29.725Z,6.59
2024-02-21T22:03:56.818Z,5.04
2024-02-21T22:06:23.649Z,5.84
2024-02-21T22:08:52.833Z,6.30
2024-02-21T22:11:20.114Z,6.20
2024-02-21T22:13:48.091Z,6.20
2024-02-21T22:16:14.873Z,6.25
2024-02-21T22:18:42.748Z,6.37
2024-02-21T22:21:09.627Z,6.52
2024-02-21T22:23:39.089Z,6.62
2024-02-21T22:26:07.441Z,6.56
2024-02-21T22:28:34.558Z,6.56
2024-02-21T22:31:01.339Z,6.52
2024-02-21T22:33:28.065Z,6.46
2024-02-21T22:35:54.903Z,6.48
2024-02-21T22:38:21.614Z,6.58
2024-02-21T22:40:48.420Z,6.69
2024-02-21T22:43:15.180Z,6.67
2024-02-21T22:45:41.877Z,6.57
2024-02-21T22:48:08.782Z,6.61
2024-02-21T22:50:35.486Z,6.48
2024-02-21T22:53:02.190Z,6.41
2024-02-21T22:55:29.701Z,6.41
2024-02-21T22:57:56.471Z,6.23
2024-02-21T23:00:23.185Z,6.54
2024-02-21T23:02:50.728Z,6.62
2024-02-21T23:05:21.257Z,6.57
2024-02-21T23:07:51.288Z,6.60
2024-02-21T23:10:18.981Z,5.98
2024-02-21T23:12:45.710Z,6.69
2024-02-21T23:15:12.502Z,6.37
2024-02-21T23:17:39.232Z,6.66
2024-02-21T23:20:08.275Z,6.58
2024-02-21T23:22:36.399Z,6.74
2024-02-21T23:25:04.415Z,6.21
2024-02-21T23:27:31.420Z,6.74
2024-02-21T23:29:58.131Z,6.61
2024-02-21T23:32:25.685Z,6.79
2024-02-21T23:34:52.432Z,6.73
2024-02-21T23:37:19.254Z,6.45
2024-02-21T23:39:46.004Z,6.56
2024-02-21T23:42:12.845Z,6.14
2024-02-21T23:44:39.545Z,6.40
2024-02-21T23:47:06.828Z,6.47
2024-02-21T23:49:33.706Z,6.30
2024-02-21T23:52:01.941Z,6.39
2024-02-21T23:54:28.711Z,6.22
2024-02-21T23:56:55.594Z,6.19
2024-02-21T23:59:23.342Z,6.23
